Time;durP1;ratioP1;P1;durP2;ratioP2;P2;SDS_P1;SDS_P2;PMS_P1;PMS_P2;Temp;Humidity;BMP_temperature;BMP_pressure;BME280_temperature;BME280_humidity;BME280_pressure;Samples;Min_cycle;Max_cycle;Signal;HPM_P1;HPM_P2
2022/03/19 00:01:40;;;;;;;13.57;5.10;;;8.20;1.00;;;;;;10435410;27;85936;-45
2022/03/19 00:06:45;;;;;;;11.75;5.00;;;8.20;1.00;;;;;;10475976;27;84110;-45
2022/03/19 00:11:47;;;;;;;8.93;4.70;;;8.20;1.00;;;;;;10459326;27;84325;-50
2022/03/19 00:16:48;;;;;;;8.85;4.57;;;8.10;1.00;;;;;;10458496;27;84222;-46
2022/03/19 00:21:50;;;;;;;10.50;4.85;;;8.10;1.00;;;;;;10476088;27;84216;-47
2022/03/19 00:26:51;;;;;;;11.60;4.85;;;8.10;1.00;;;;;;10458248;27;84247;-46
2022/03/19 00:31:52;;;;;;;9.85;4.30;;;8.00;1.00;;;;;;10474790;27;84829;-44
2022/03/19 00:36:53;;;;;;;9.23;5.07;;;7.90;1.00;;;;;;10477388;27;92241;-46
2022/03/19 00:41:54;;;;;;;9.02;4.55;;;7.90;1.00;;;;;;10471700;27;85080;-47
2022/03/19 00:46:55;;;;;;;12.13;5.40;;;7.90;1.00;;;;;;10458279;27;84215;-45
2022/03/19 00:51:55;;;;;;;6.88;4.30;;;7.80;1.00;;;;;;10473490;27;84467;-47
2022/03/19 00:56:56;;;;;;;9.68;4.90;;;7.80;1.00;;;;;;10464548;27;84879;-50
2022/03/19 01:01:56;;;;;;;9.57;5.00;;;7.80;1.00;;;;;;10484123;27;84950;-49
2022/03/19 01:06:57;;;;;;;;;;;7.70;1.00;;;;;;10453650;27;84865;-46
2022/03/19 01:11:58;;;;;;;;;;;7.70;1.00;;;;;;10479833;27;85035;-45
2022/03/19 01:16:58;;;;;;;;;;;7.60;1.00;;;;;;10449221;27;85617;-46
2022/03/19 01:21:59;;;;;;;;;;;7.60;1.00;;;;;;10480659;27;85114;-50
2022/03/19 01:26:59;;;;;;;;;;;7.50;1.00;;;;;;10491211;27;85209;-47
2022/03/19 01:31:59;;;;;;;;;;;7.50;1.00;;;;;;10456819;27;85646;-52
2022/03/19 01:37:00;;;;;;;;;;;7.40;1.00;;;;;;10483012;27;84303;-47
2022/03/19 01:42:01;;;;;;;;;;;7.40;1.00;;;;;;10473186;27;84351;-46
2022/03/19 01:47:03;;;;;;;;;;;7.40;1.00;;;;;;10452538;27;84148;-45
2022/03/19 01:52:04;;;;;;;;;;;7.30;1.00;;;;;;10479535;27;84346;-45
2022/03/19 01:57:05;;;;;;;;;;;7.30;1.00;;;;;;10480591;27;84919;-47
2022/03/19 02:02:06;;;;;;;;;;;7.40;1.00;;;;;;10471908;27;86925;-50
2022/03/19 02:07:08;;;;;;;;;;;7.30;1.00;;;;;;10482866;27;84980;-46
2022/03/19 02:12:08;;;;;;;;;;;7.30;1.00;;;;;;10459235;27;86303;-45
2022/03/19 02:17:09;;;;;;;;;;;7.30;1.00;;;;;;10471841;27;84942;-45
2022/03/19 02:22:09;;;;;;;;;;;7.20;1.00;;;;;;10469399;27;84850;-45
2022/03/19 02:27:10;;;;;;;;;;;7.20;1.00;;;;;;10477172;27;85091;-45
2022/03/19 02:32:11;;;;;;;;;;;7.20;1.00;;;;;;10488372;27;84103;-47
2022/03/19 02:37:11;;;;;;;;;;;7.10;1.00;;;;;;10456188;27;85301;-45
2022/03/19 02:42:14;;;;;;;;;;;7.10;1.00;;;;;;10492361;27;84977;-46
2022/03/19 02:47:15;;;;;;;;;;;7.10;1.00;;;;;;10453027;28;84871;-46
2022/03/19 02:52:15;;;;;;;;;;;7.10;1.00;;;;;;10454396;28;84027;-47
2022/03/19 02:57:16;;;;;;;;;;;7.00;1.00;;;;;;10452720;27;84150;-45
2022/03/19 03:02:16;;;;;;;;;;;7.00;1.00;;;;;;10466953;27;84962;-49
2022/03/19 03:07:17;;;;;;;;;;;6.90;1.00;;;;;;10477664;27;84683;-45
2022/03/19 03:12:17;;;;;;;;;;;6.90;1.00;;;;;;10476641;27;84962;-49
2022/03/19 03:17:18;;;;;;;;;;;6.80;1.00;;;;;;10461029;27;84957;-45
2022/03/19 03:22:18;;;;;;;;;;;6.80;1.00;;;;;;10475641;27;84106;-45
2022/03/19 03:27:19;;;;;;;;;;;6.80;1.00;;;;;;10467198;27;87112;-45
2022/03/19 03:32:19;;;;;;;;;;;6.70;1.00;;;;;;10467244;27;84904;-45
2022/03/19 03:37:20;;;;;;;;;;;6.70;1.00;;;;;;10487447;27;84200;-47
2022/03/19 03:42:21;;;;;;;;;;;6.70;1.00;;;;;;10490421;27;84723;-47
2022/03/19 03:47:21;;;;;;;;;;;6.70;1.00;;;;;;10470662;27;84824;-51
2022/03/19 03:52:22;;;;;;;;;;;6.70;1.00;;;;;;10470003;27;84276;-48
2022/03/19 03:57:23;;;;;;;;;;;6.70;1.00;;;;;;10452474;27;84458;-47
2022/03/19 04:02:23;;;;;;;;;;;6.60;1.00;;;;;;10453429;27;84863;-47
2022/03/19 04:07:24;;;;;;;;;;;6.50;1.00;;;;;;10451204;28;84966;-47
2022/03/19 04:12:25;;;;;;;;;;;6.50;1.00;;;;;;10451599;27;84124;-49
2022/03/19 04:17:25;;;;;;;;;;;6.40;1.00;;;;;;10451358;27;84558;-46
2022/03/19 04:22:52;;;;;;;;;;;6.40;1.00;;;;;;10491751;27;85066;-45
2022/03/19 04:27:54;;;;;;;;;;;6.40;1.00;;;;;;10486851;27;84170;-49
2022/03/19 04:32:56;;;;;;;;;;;6.30;1.00;;;;;;10455961;27;84936;-44
2022/03/19 04:37:58;;;;;;;;;;;6.20;1.00;;;;;;10484884;27;84891;-44
2022/03/19 04:42:59;;;;;;;;;;;6.30;1.00;;;;;;10472548;27;84234;-44
2022/03/19 04:48:00;;;;;;;;;;;6.20;1.00;;;;;;10473518;27;84143;-49
2022/03/19 04:53:00;;;;;;;;;;;6.30;1.00;;;;;;10478252;27;84925;-49
2022/03/19 04:58:02;;;;;;;;;;;6.20;1.00;;;;;;10459716;27;84918;-44
2022/03/19 05:03:03;;;;;;;;;;;6.20;1.00;;;;;;10474657;27;84743;-49
2022/03/19 05:08:05;;;;;;;;;;;6.10;1.00;;;;;;10475436;27;84695;-45
2022/03/19 05:13:06;;;;;;;;;;;6.10;1.00;;;;;;10481294;27;84037;-43
2022/03/19 05:18:06;;;;;;;;;;;6.00;1.00;;;;;;10479596;27;84411;-45
2022/03/19 05:23:07;;;;;;;;;;;6.00;1.00;;;;;;10478312;27;84004;-44
2022/03/19 05:28:07;;;;;;;;;;;5.90;1.00;;;;;;10476899;27;84256;-48
2022/03/19 05:33:08;;;;;;;;;;;5.90;1.00;;;;;;10478905;27;85089;-46
2022/03/19 05:38:08;;;;;;;;;;;5.80;1.00;;;;;;10478163;27;84735;-48
2022/03/19 05:43:09;;;;;;;;;;;5.80;1.00;;;;;;10479369;27;84180;-47
2022/03/19 05:48:09;;;;;;;;;;;5.70;1.00;;;;;;10475253;27;84293;-47
2022/03/19 05:53:10;;;;;;;;;;;5.70;1.00;;;;;;10490372;27;90075;-45
2022/03/19 05:58:10;;;;;;;;;;;5.70;1.00;;;;;;10471443;27;84175;-44
2022/03/19 06:03:11;;;;;;;;;;;5.70;1.00;;;;;;10477295;27;85203;-46
2022/03/19 06:08:11;;;;;;;;;;;5.70;1.00;;;;;;10464304;27;85203;-49
2022/03/19 06:13:12;;;;;;;;;;;5.70;1.00;;;;;;10472569;27;84927;-47
2022/03/19 06:18:12;;;;;;;;;;;5.70;1.00;;;;;;10472985;27;84319;-49
2022/03/19 06:23:13;;;;;;;;;;;5.80;1.00;;;;;;10472407;27;84882;-45
2022/03/19 06:28:14;;;;;;;;;;;5.90;1.00;;;;;;10471244;27;84324;-45
2022/03/19 06:33:15;;;;;;;;;;;6.20;1.00;;;;;;10450510;27;84109;-45
2022/03/19 06:38:15;;;;;;;;;;;6.70;1.00;;;;;;10478436;27;84319;-48
2022/03/19 06:43:16;;;;;;;;;;;7.10;1.00;;;;;;10473563;27;84138;-54
2022/03/19 06:48:17;;;;;;;;;;;7.60;1.00;;;;;;10456802;27;85081;-47
2022/03/19 06:53:18;;;;;;;;;;;8.10;99.90;;;;;;10454494;27;86132;-47
2022/03/19 06:58:21;;;;;;;;;;;8.20;99.90;;;;;;10473911;27;86908;-45
2022/03/19 07:03:22;;;;;;;;;;;8.60;99.90;;;;;;10475482;27;84789;-45
2022/03/19 07:08:23;;;;;;;;;;;8.90;1.00;;;;;;10453657;27;84722;-45
2022/03/19 07:13:24;;;;;;;;;;;9.30;1.00;;;;;;10456009;27;85973;-43
2022/03/19 07:18:24;;;;;;;;;;;9.60;1.00;;;;;;10470639;27;84058;-44
2022/03/19 07:23:25;;;;;;;;;;;9.80;99.90;;;;;;10472319;27;84881;-42
2022/03/19 07:28:26;;;;;;;;;;;10.30;1.00;;;;;;10468984;27;84889;-44
2022/03/19 07:33:33;;;;;;;;;;;10.50;1.00;;;;;;10487610;27;84573;-44
2022/03/19 07:38:34;;;;;;;;;;;10.50;99.90;;;;;;10493875;27;84044;-47
2022/03/19 07:43:34;;;;;;;;;;;10.80;1.00;;;;;;10474185;27;84850;-44
2022/03/19 07:48:35;;;;;;;;;;;11.10;1.00;;;;;;10458215;27;86994;-61
2022/03/19 07:53:37;;;;;;;;;;;11.60;1.00;;;;;;10472144;27;84969;-53
2022/03/19 07:58:37;;;;;;;;;;;11.80;1.00;;;;;;10461421;27;84521;-54
2022/03/19 08:03:39;;;;;;;;;;;12.20;1.00;;;;;;10475678;27;84964;-49
2022/03/19 08:08:40;;;;;;;;;;;12.70;1.00;;;;;;10490106;27;84329;-57
2022/03/19 08:13:40;;;;;;;;;;;12.40;95.70;;;;;;10489916;27;84127;-58
2022/03/19 08:18:41;;;;;;;;;;;13.00;1.00;;;;;;10486377;27;84161;-60
2022/03/19 08:23:42;;;;;;;;;;;13.30;99.90;;;;;;10490022;27;84127;-59
2022/03/19 08:28:42;;;;;;;;;;;14.00;1.00;;;;;;10488864;27;84936;-57
2022/03/19 08:33:43;;;;;;;;;;;14.40;99.90;;;;;;10488888;27;84907;-61
2022/03/19 08:44:05;;;;;;;;;;;14.70;1.00;;;;;;10450378;27;84778;-58
2022/03/19 08:49:05;;;;;;;;;;;15.30;1.00;;;;;;10453964;27;84229;-49
2022/03/19 08:54:16;;;;;;;;;;;15.60;99.90;;;;;;10457147;27;86064;-52
2022/03/19 08:59:18;;;;;;;;;;;15.80;99.90;;;;;;10465140;27;85082;-57
2022/03/19 09:04:19;;;;;;;;;;;16.20;99.90;;;;;;10458340;27;85971;-55
2022/03/19 09:09:19;;;;;;;;;;;16.70;99.90;;;;;;10470908;27;84249;-61
2022/03/19 09:14:20;;;;;;;;;;;16.90;1.00;;;;;;10483093;27;84883;-63
2022/03/19 09:19:22;;;;;;;;;;;16.50;1.00;;;;;;10480946;27;84971;-56
2022/03/19 09:24:23;;;;;;;;;;;16.60;1.00;;;;;;10491916;27;84915;-62
2022/03/19 09:29:24;;;;;;;;;;;17.60;1.00;;;;;;10461295;27;84309;-52
2022/03/19 09:34:25;;;;;;;;;;;17.80;1.00;;;;;;10453572;28;84868;-60
2022/03/19 09:39:25;;;;;;;;;;;17.10;1.00;;;;;;10478446;27;85040;-62
2022/03/19 09:44:26;;;;;;;;;;;17.40;1.00;;;;;;10496897;27;85350;-57
2022/03/19 09:49:26;;;;;;;;;;;17.80;1.00;;;;;;10480858;27;85122;-54
2022/03/19 09:54:27;;;;;;;;;;;17.80;1.00;;;;;;10498611;27;84271;-55
2022/03/19 09:59:28;;;;;;;;;;;17.60;1.00;;;;;;10496136;27;84942;-58
2022/03/19 10:04:29;;;;;;;;;;;17.80;1.00;;;;;;10468978;27;86710;-56
2022/03/19 10:09:29;;;;;;;;;;;18.20;1.00;;;;;;10469688;27;84955;-55
2022/03/19 10:14:32;;;;;;;;;;;16.70;1.00;;;;;;10445181;27;91907;-55
2022/03/19 10:19:47;;;;;;;;;;;16.70;1.00;;;;;;10491983;27;84711;-55
2022/03/19 10:24:54;;;;;;;;;;;17.10;1.00;;;;;;10495354;27;84814;-55
2022/03/19 10:30:02;;;;;;;;;;;16.80;1.00;;;;;;10472880;27;84371;-58
2022/03/19 10:35:03;;;;;;;;;;;17.20;1.00;;;;;;10469964;27;84876;-61
2022/03/19 10:40:05;;;;;;;;;;;17.30;1.00;;;;;;10474255;27;84873;-58
2022/03/19 10:45:06;;;;;;;;;;;17.20;1.00;;;;;;10492008;27;84252;-49
2022/03/19 10:50:07;;;;;;;;;;;17.00;1.00;;;;;;10468573;27;85986;-52
2022/03/19 10:55:08;;;;;;;;;;;17.90;1.00;;;;;;10495295;27;85476;-48
2022/03/19 11:00:09;;;;;;;;;;;18.10;1.00;;;;;;10466997;27;84759;-51
2022/03/19 11:05:11;;;;;;;;;;;18.20;1.00;;;;;;10477485;27;85376;-50
2022/03/19 11:10:12;;;;;;;;;;;18.40;1.00;;;;;;10474048;27;84947;-54
2022/03/19 11:15:13;;;;;;;;;;;18.30;99.90;;;;;;10476296;27;85898;-52
2022/03/19 11:20:13;;;;;;;;;;;18.70;99.90;;;;;;10457842;27;85906;-50
2022/03/19 11:25:17;;;;;;;;;;;18.30;99.90;;;;;;10471496;27;84975;-55
2022/03/19 11:30:22;;;;;;;;;;;18.70;99.90;;;;;;10452882;27;87062;-51
2022/03/19 11:35:26;;;;;;;;;;;18.50;99.90;;;;;;10466154;27;85234;-50
2022/03/19 11:40:32;;;;;;;;;;;18.00;99.90;;;;;;10483577;27;84893;-53
2022/03/19 11:45:38;;;;;;;;;;;18.00;99.90;;;;;;10479144;27;84707;-56
2022/03/19 11:50:42;;;;;;;;;;;18.60;99.90;;;;;;10452783;27;87090;-49
2022/03/19 11:55:43;;;;;;;;;;;19.20;99.90;;;;;;10456658;27;86797;-47
2022/03/19 12:00:45;;;;;;;;;;;19.10;99.90;;;;;;10494630;27;84051;-50
2022/03/19 12:05:47;;;;;;;;;;;18.80;99.90;;;;;;10484481;27;84346;-53
2022/03/19 12:10:58;;;;;;;;;;;18.20;99.90;;;;;;10458267;27;84557;-49
2022/03/19 12:15:59;;;;;;;;;;;18.90;99.90;;;;;;10457613;28;84882;-49
2022/03/19 12:21:02;;;;;;;;;;;18.20;99.90;;;;;;10451987;28;84868;-55
2022/03/19 12:26:04;;;;;;;;;;;18.10;99.90;;;;;;10477322;27;84177;-49
2022/03/19 12:31:11;;;;;;;;;;;18.20;99.90;;;;;;10492172;27;84153;-49
2022/03/19 12:36:15;;;;;;;;;;;18.20;99.90;;;;;;10492620;27;84285;-52
2022/03/19 12:41:30;;;;;;;;;;;17.70;99.90;;;;;;10490614;27;84956;-51
2022/03/19 12:46:31;;;;;;;;;;;18.10;99.90;;;;;;10490909;27;85423;-51
2022/03/19 12:51:32;;;;;;;;;;;18.00;99.90;;;;;;10475254;27;84925;-53
2022/03/19 12:56:32;;;;;;;;;;;18.20;99.90;;;;;;10490786;27;84291;-49
2022/03/19 13:01:33;;;;;;;;;;;18.90;99.90;;;;;;10450240;28;84975;-47
2022/03/19 13:06:36;;;;;;;;;;;18.40;99.90;;;;;;10430713;28;85104;-53
2022/03/19 13:11:43;;;;;;;;;;;18.10;99.90;;;;;;10431811;28;85994;-45
2022/03/19 13:16:47;;;;;;;;;;;18.10;99.90;;;;;;10431721;28;84211;-51
2022/03/19 13:21:50;;;;;;;;;;;17.60;99.90;;;;;;10456954;27;84172;-48
2022/03/19 13:26:51;;;;;;;;;;;17.00;99.90;;;;;;10456720;28;85458;-47
2022/03/19 13:31:54;;;;;;;;;;;17.40;99.90;;;;;;10458734;27;84626;-49
2022/03/19 13:36:56;;;;;;;;;;;17.50;99.90;;;;;;10437784;28;84620;-52
2022/03/19 13:42:04;;;;;;;;;;;17.20;99.90;;;;;;10455973;27;84468;-50
2022/03/19 13:47:09;;;;;;;;;;;17.60;99.90;;;;;;10449327;27;87083;-47
2022/03/19 13:52:29;;;;;;;;;;;17.50;99.90;;;;;;10499173;27;84411;-50
2022/03/19 13:57:40;;;;;;;;;;;17.80;99.90;;;;;;10478218;27;85684;-50
2022/03/19 14:02:41;;;;;;;;;;;17.00;99.90;;;;;;10491825;27;84223;-50
2022/03/19 14:07:42;;;;;;;;;;;15.70;99.90;;;;;;10454792;28;84653;-47
2022/03/19 14:12:43;;;;;;;;;;;15.00;99.90;;;;;;10437306;28;84426;-44
2022/03/19 14:17:44;;;;;;;;;;;15.00;99.90;;;;;;10436831;27;84915;-47
2022/03/19 14:22:49;;;;;;;;;;;15.90;99.90;;;;;;10456777;27;83995;-45
2022/03/19 14:27:50;;;;;;;;;;;16.00;99.90;;;;;;10454983;28;84875;-50
2022/03/19 14:32:51;;;;;;;;;;;15.20;99.90;;;;;;10453937;28;84722;-52
2022/03/19 14:37:52;;;;;;;;;;;14.50;99.90;;;;;;10454867;27;85482;-50
2022/03/19 14:42:52;;;;;;;;;;;14.00;99.90;;;;;;10437060;27;84112;-53
2022/03/19 14:47:53;;;;;;;;;;;13.20;99.90;;;;;;10477710;27;87092;-55
2022/03/19 14:52:55;;;;;;;;;;;13.00;99.90;;;;;;10495014;27;85064;-51
2022/03/19 14:57:55;;;;;;;;;;;12.90;99.90;;;;;;10482310;27;84426;-48
2022/03/19 15:02:57;;;;;;;;;;;12.90;99.90;;;;;;10454446;28;84492;-52
2022/03/19 15:07:57;;;;;;;;;;;13.20;99.90;;;;;;10453468;28;84846;-52
2022/03/19 15:12:58;;;;;;;;;;;13.10;99.90;;;;;;10456723;27;84962;-50
2022/03/19 15:17:59;;;;;;;;;;;13.10;99.90;;;;;;10492127;27;84046;-48
2022/03/19 15:22:59;;;;;;;;;;;13.00;99.90;;;;;;10493564;27;84195;-50
2022/03/19 15:28:00;;;;;;;;;;;13.10;99.90;;;;;;10485209;27;84175;-47
2022/03/19 15:33:01;;;;;;;;;;;12.70;99.90;;;;;;10493120;27;84125;-48
2022/03/19 15:38:02;;;;;;;;;;;12.20;99.90;;;;;;10475643;27;84182;-50
2022/03/19 15:43:04;;;;;;;;;;;12.10;99.90;;;;;;10493673;27;85950;-48
2022/03/19 15:48:04;;;;;;;;;;;11.90;99.90;;;;;;10492091;27;84211;-48
2022/03/19 15:53:05;;;;;;;;;;;11.90;99.90;;;;;;10466651;27;84676;-51
2022/03/19 15:58:06;;;;;;;;;;;11.90;99.90;;;;;;10480573;27;84920;-50
2022/03/19 16:03:06;;;;;;;;;;;11.90;99.90;;;;;;10493700;27;84909;-52
2022/03/19 16:08:07;;;;;;;;;;;11.90;99.90;;;;;;10486089;27;84278;-63
2022/03/19 16:13:13;;;;;;;;;;;11.90;99.90;;;;;;10463234;27;85041;-61
2022/03/19 16:18:16;;;;;;;;;;;11.90;99.90;;;;;;10453065;28;84903;-61
2022/03/19 16:23:17;;;;;;;;;;;11.70;99.90;;;;;;10445005;27;84328;-64
2022/03/19 16:28:18;;;;;;;;;;;11.60;99.90;;;;;;10440827;27;86754;-53
2022/03/19 16:33:19;;;;;;;;;;;11.50;99.90;;;;;;10471927;27;91399;-52
2022/03/19 16:38:19;;;;;;;;;;;11.20;99.90;;;;;;10495374;27;84274;-54
2022/03/19 16:43:20;;;;;;;;;;;11.20;99.90;;;;;;10482729;27;84885;-58
2022/03/19 16:48:22;;;;;;;;;;;11.20;99.90;;;;;;10455831;27;84237;-57
2022/03/19 16:53:23;;;;;;;;;;;11.20;99.90;;;;;;10459913;27;84115;-54
2022/03/19 16:58:24;;;;;;;;;;;11.10;99.90;;;;;;10457599;27;84811;-54
2022/03/19 17:03:24;;;;;;;;;;;11.20;99.90;;;;;;10480919;27;84850;-55
2022/03/19 17:08:25;;;;;;;;;;;11.00;99.90;;;;;;10479098;27;84225;-54
2022/03/19 17:13:26;;;;;;;;;;;11.00;1.00;;;;;;10466712;27;86864;-53
2022/03/19 17:18:26;;;;;;;;;;;10.70;1.00;;;;;;10478688;27;85983;-55
2022/03/19 17:23:27;;;;;;;;;;;10.50;1.00;;;;;;10475683;27;85005;-52
2022/03/19 17:28:27;;;;;;;;;;;10.50;1.00;;;;;;10460696;27;86983;-50
2022/03/19 17:33:31;;;;;;;;;;;10.30;1.00;;;;;;10462993;27;84928;-51
2022/03/19 17:38:32;;;;;;;;;;;10.20;1.00;;;;;;10438343;28;85644;-48
2022/03/19 17:43:33;;;;;;;;;;;10.30;1.00;;;;;;10475151;27;84255;-50
2022/03/19 17:48:33;;;;;;;;;;;10.20;1.00;;;;;;10463122;27;85929;-50
2022/03/19 17:53:34;;;;;;;;;;;10.10;1.00;;;;;;10480071;27;84707;-56
2022/03/19 17:58:35;;;;;;;;;;;10.00;1.00;;;;;;10455104;28;84149;-51
2022/03/19 18:03:35;;;;;;;;;;;9.90;1.00;;;;;;10456548;27;84967;-47
2022/03/19 18:08:36;;;;;;;;;;;9.90;31.60;;;;;;10454878;28;85092;-44
2022/03/19 18:13:36;;;;;;;;;;;9.80;99.90;;;;;;10458728;27;85636;-50
2022/03/19 18:18:37;;;;;;;;;;;9.70;99.90;;;;;;10497533;27;84701;-50
2022/03/19 18:23:37;;;;;;;;;;;9.70;99.90;;;;;;10479700;27;84939;-53
2022/03/19 18:28:38;;;;;;;;;;;9.60;99.90;;;;;;10483857;27;84041;-48
2022/03/19 18:33:38;;;;;;;;;;;9.60;99.90;;;;;;10454630;28;84849;-50
2022/03/19 18:38:39;;;;;;;;;;;9.60;99.90;;;;;;10435620;28;86708;-49
2022/03/19 18:43:39;;;;;;;;;;;9.50;99.90;;;;;;10455076;27;84141;-49
2022/03/19 18:48:40;;;;;;;;;;;9.50;99.90;;;;;;10496326;27;84139;-49
2022/03/19 18:53:41;;;;;;;;;;;9.50;1.00;;;;;;10478310;27;84159;-52
2022/03/19 18:58:42;;;;;;;;;;;9.40;1.00;;;;;;10440173;27;84949;-49
2022/03/19 19:03:42;;;;;;;;;;;9.40;1.00;;;;;;10495170;27;84850;-48
2022/03/19 19:08:43;;;;;;;;;;;9.30;1.00;;;;;;10494333;27;84044;-48
2022/03/19 19:13:43;;;;;;;;;;;9.30;1.00;;;;;;10476540;27;85217;-49
2022/03/19 19:18:44;;;;;;;;;;;9.30;99.90;;;;;;10453024;27;84307;-49
2022/03/19 19:23:45;;;;;;;;;;;9.20;1.00;;;;;;10452934;28;84057;-52
2022/03/19 19:28:45;;;;;;;;;;;9.10;1.00;;;;;;10451515;28;84128;-53
2022/03/19 19:33:46;;;;;;;;;;;9.00;1.00;;;;;;10434466;28;85572;-50
2022/03/19 19:38:46;;;;;;;;;;;9.00;1.00;;;;;;10453693;27;84689;-50
2022/03/19 19:43:47;;;;;;;;;;;8.90;1.00;;;;;;10449251;28;84369;-50
2022/03/19 19:48:47;;;;;;;;;;;8.90;1.00;;;;;;10455239;27;85095;-56
2022/03/19 19:53:48;;;;;;;;;;;8.80;1.00;;;;;;10451647;27;90968;-53
2022/03/19 19:58:49;;;;;;;;;;;8.70;99.90;;;;;;10466020;27;84234;-52
2022/03/19 20:03:49;;;;;;;;;;;8.70;99.90;;;;;;10465862;27;84937;-52
2022/03/19 20:08:50;;;;;;;;;;;8.70;99.90;;;;;;10462341;27;86224;-52
2022/03/19 20:13:50;;;;;;;;;;;8.60;1.00;;;;;;10448896;27;86014;-46
2022/03/19 20:18:53;;;;;;;;;;;8.60;1.00;;;;;;10467035;27;84946;-49
2022/03/19 20:23:53;;;;;;;;;;;8.50;1.00;;;;;;10488592;27;84146;-60
2022/03/19 20:28:55;;;;;;;;;;;8.40;1.00;;;;;;10452261;27;85392;-60
2022/03/19 20:33:56;;;;;;;;;;;8.40;1.00;;;;;;10489431;27;85322;-61
2022/03/19 20:38:56;;;;;;;;;;;8.40;99.90;;;;;;10487801;27;84780;-61
2022/03/19 20:43:57;;;;;;;;;;;8.40;99.90;;;;;;10484754;27;85517;-49
2022/03/19 20:48:58;;;;;;;;;;;8.40;99.90;;;;;;10455597;27;83960;-45
2022/03/19 20:53:59;;;;;;;;;;;8.40;99.90;;;;;;10452336;28;85723;-45
2022/03/19 20:58:59;;;;;;;;;;;8.40;99.90;;;;;;10455275;27;85007;-50
2022/03/19 21:03:59;;;;;;;;;;;8.30;1.00;;;;;;10483647;27;87718;-46
2022/03/19 21:09:00;;;;;;;;;;;8.30;1.00;;;;;;10492898;27;84135;-46
2022/03/19 21:14:01;;;;;;;;;;;8.20;1.00;;;;;;10493981;27;84089;-45
2022/03/19 21:19:02;;;;;;;;;;;8.10;99.90;;;;;;10494952;27;84151;-46
2022/03/19 21:24:02;;;;;;;;;;;8.10;99.90;;;;;;10477171;27;87072;-43
2022/03/19 21:29:04;;;;;;;;;;;8.00;1.00;;;;;;10494209;27;84787;-47
2022/03/19 21:34:04;;;;;;;;;;;7.90;1.00;;;;;;10492376;27;85790;-44
2022/03/19 21:44:29;;;;;;;;;;;7.80;1.00;;;;;;10461986;27;86464;-44
2022/03/19 21:49:29;;;;;;;;;;;7.80;1.00;;;;;;10471249;27;84719;-46
2022/03/19 21:54:30;;;;;;;;;;;7.70;1.00;;;;;;10457294;28;84160;-46
2022/03/19 21:59:31;;;;;;;;;;;7.70;1.00;;;;;;10456692;28;85082;-51
2022/03/19 22:04:32;;;;;;;;;;;7.70;1.00;;;;;;10458417;27;84279;-49
2022/03/19 22:09:32;;;;;;;;;;;7.70;1.00;;;;;;10462664;27;84484;-45
2022/03/19 22:14:33;;;;;;;;;;;7.70;1.00;;;;;;10438463;28;84911;-49
2022/03/19 22:24:55;;;;;;;;;;;7.60;1.00;;;;;;10456753;28;85105;-46
2022/03/19 22:29:55;;;;;;;;;;;7.50;1.00;;;;;;10454645;28;84107;-50
2022/03/19 22:34:56;;;;;;;;;;;7.40;1.00;;;;;;10455916;28;84922;-54
2022/03/19 22:39:57;;;;;;;;;;;7.40;1.00;;;;;;10493489;27;84768;-50
2022/03/19 22:44:57;;;;;;;;;;;7.30;1.00;;;;;;10490569;27;84329;-46
2022/03/19 22:49:58;;;;;;;;;;;7.20;99.90;;;;;;10460687;27;85329;-46
2022/03/19 22:54:58;;;;;;;;;;;7.10;99.90;;;;;;10454392;28;84050;-47
2022/03/19 22:59:59;;;;;;;;;;;7.00;99.90;;;;;;10475923;27;84913;-46
2022/03/19 23:05:00;;;;;;;;;;;7.00;99.90;;;;;;10493383;27;84998;-50
2022/03/19 23:10:01;;;;;;;;;;;7.00;15.10;;;;;;10459278;27;84840;-50
2022/03/19 23:15:01;;;;;;;;;;;6.90;1.00;;;;;;10484052;27;84255;-48
2022/03/19 23:20:02;;;;;;;;;;;6.90;1.00;;;;;;10452414;27;84157;-45
2022/03/19 23:25:03;;;;;;;;;;;6.80;1.00;;;;;;10453266;28;84563;-49
2022/03/19 23:30:04;;;;;;;;;;;6.80;1.00;;;;;;10452436;27;84897;-47
2022/03/19 23:40:26;;;;;;;;;;;6.70;17.40;;;;;;10493883;27;84168;-51
2022/03/19 23:45:26;;;;;;;;;;;6.50;99.90;;;;;;10474949;27;85910;-47
2022/03/19 23:50:27;;;;;;;;;;;6.40;99.90;;;;;;10493456;27;84642;-46
2022/03/19 23:55:28;;;;;;;;;;;6.40;1.00;;;;;;10493026;27;84981;-48
